This is the latest recevied weather packets stored in our database for station/object DC1NF-7. If no packets are shown the sender has not sent any weather packets the latest 10 day(s).
| Time | Temp. | Humidity | Pressure | Rain* | Wind** | Luminosity | Snow |
|---|---|---|---|---|---|---|---|
| 1777572371 | 15° C | 30% | 1027.2 hPa | 0 mm | - | 19 W/m² | - |
| 1777571766 | 15.56° C | 29% | 1027.1 hPa | 0 mm | - | 28 W/m² | - |
| 1777571162 | 16.11° C | 28% | 1027.3 hPa | 0 mm | - | 41 W/m² | - |
| 1777570559 | 16.11° C | 27% | 1027.2 hPa | 0 mm | - | 48 W/m² | - |
| 1777569955 | 16.11° C | 26% | 1027.2 hPa | 0 mm | - | 60 W/m² | - |
| 1777569352 | 16.67° C | 26% | 1027.1 hPa | 0 mm | - | 71 W/m² | - |
| 1777568748 | 17.22° C | 25% | 1027.1 hPa | 0 mm | - | 102 W/m² | - |
| 1777568144 | 17.22° C | 25% | 1027.2 hPa | 0 mm | - | 127 W/m² | - |
| 1777567540 | 17.22° C | 24% | 1027.2 hPa | 0 mm | - | 144 W/m² | - |
| 1777566936 | 17.22° C | 23% | 1027.2 hPa | 0 mm | - | 154 W/m² | - |
| 1777566333 | 17.78° C | 23% | 1027.1 hPa | 0 mm | - | 169 W/m² | - |
| 1777565730 | 17.22° C | 22% | 1027 hPa | 0 mm | - | 182 W/m² | - |
| 1777565127 | 17.78° C | 22% | 1027.1 hPa | 0 mm | - | 202 W/m² | - |
| 1777564524 | 17.78° C | 22% | 1027 hPa | 0 mm | - | 224 W/m² | - |
| 1777563921 | 17.78° C | 21% | 1027.1 hPa | 0 mm | - | 254 W/m² | - |
| 1777563316 | 17.78° C | 21% | 1027.2 hPa | 0 mm | - | 281 W/m² | - |
| 1777562776 | 17.78° C | 21% | 1027.2 hPa | 0 mm | - | 308 W/m² | - |
| 1777562171 | 17.78° C | 20% | 1027.3 hPa | 0 mm | - | 337 W/m² | - |
| 1777561568 | 17.78° C | 20% | 1027.4 hPa | 0 mm | - | 369 W/m² | - |
| 1777560962 | 17.78° C | 21% | 1027.3 hPa | 0 mm | - | 396 W/m² | - |
| 1777560358 | 17.78° C | 20% | 1027.4 hPa | 0 mm | - | 428 W/m² | - |
| 1777559757 | 17.78° C | 19% | 1027.4 hPa | 0 mm | - | 469 W/m² | - |
| 1777559150 | 17.22° C | 20% | 1027.5 hPa | 0 mm | - | 510 W/m² | - |
| 1777558546 | 17.78° C | 20% | 1027.6 hPa | 0 mm | - | 549 W/m² | - |
| 1777557942 | 17.22° C | 22% | 1027.7 hPa | 0 mm | - | 583 W/m² | - |
* Rain latest hour (hover to see other rain measurements)
** Current wind speed in m/s (hover to see current wind gust speed)